Phoenix-Mesa-Gateway Airport Phoenix US
ICAO: KIWA
IATA: AZA
Category: Medium
Scheduled Services: No

Elevation: 1382 ft
TransAlt. 18000 ft.

Airport Communications:
PHOENIX APP/DEP:124.9
ATIS:133.5
AWOS 3:133.5
CLNC DEL:128.25
CTAF:120.6
GATEWAY GND:128.25
GATEWAY TWR:118.8

KIWA Zoom In..

If you have problems with the map follow the link
https://www.worldairports.se/pages/airport.php?
ICAO=KIWA

Runways:

(A) RW 12C length 10201 ft width 150 ft
---- / hdg 123

(B) RW 12L length 9300 ft width 150 ft
---- / hdg 123

(C) RW 12R length 10401 ft width 150 ft
---- / hdg 123

(D) RW 30C length 10201 ft width 150 ft
ILS 110.15 / hdg 303

(E) RW 30L length 10401 ft width 150 ft
---- / hdg 303

(F) RW 30R length 9300 ft width 150 ft
---- / hdg 303

Location; KIWA
Day. 08 / Time. 12.50 Zulu
* Altimeter: 30.07
* Temperature: 13° c. 55.4°f.
* Wind from: 000° Speed 00 kn.
Dewpoint: 12° c.
Visibility: 10 Statute Miles.
Clouds: Overcast 6000 ft.

KIWA 081250Z 00000KT 10SM OVC060 13/12 A3007


Wind - Calm.

 
 
jpsmedia worldairports.se 2019   terms of use